createdAt,value
2023-04-10T00:01:36.786Z,16.29
2023-04-10T00:04:05.081Z,16.29
2023-04-10T00:06:34.703Z,16.28
2023-04-10T00:09:02.989Z,16.29
2023-04-10T00:11:30.935Z,16.29
2023-04-10T00:13:58.934Z,16.27
2023-04-10T00:16:26.949Z,16.26
2023-04-10T00:18:55.061Z,16.27
2023-04-10T00:21:23.014Z,16.30
2023-04-10T00:23:52.674Z,16.31
2023-04-10T00:26:21.480Z,16.27
2023-04-10T00:28:49.523Z,16.22
2023-04-10T00:31:17.509Z,16.23
2023-04-10T00:33:45.536Z,16.18
2023-04-10T00:36:13.671Z,16.22
2023-04-10T00:38:43.052Z,16.23
2023-04-10T00:41:12.463Z,16.19
2023-04-10T00:43:40.536Z,16.18
2023-04-10T00:46:08.636Z,16.17
2023-04-10T00:48:36.668Z,16.16
2023-04-10T00:51:04.734Z,16.14
2023-04-10T00:53:32.675Z,16.11
2023-04-10T00:56:02.607Z,16.11
2023-04-10T00:58:32.014Z,16.07
2023-04-10T01:00:59.947Z,16.04
2023-04-10T01:03:28.167Z,15.99
2023-04-10T01:06:00.692Z,15.94
2023-04-10T01:08:32.653Z,15.91
2023-04-10T01:11:03.039Z,15.88
2023-04-10T01:13:35.469Z,15.83
2023-04-10T01:16:06.066Z,15.84
2023-04-10T01:18:38.270Z,15.80
2023-04-10T01:21:09.290Z,15.78
2023-04-10T01:23:51.309Z,15.78
2023-04-10T01:26:19.851Z,15.72
2023-04-10T01:28:54.370Z,15.73
2023-04-10T01:31:25.508Z,15.70
2023-04-10T01:33:57.954Z,15.66
2023-04-10T01:36:29.772Z,15.65
2023-04-10T01:39:00.294Z,15.65
2023-04-10T01:41:29.442Z,15.64
2023-04-10T01:43:59.631Z,15.60
2023-04-10T01:46:28.446Z,15.61
2023-04-10T01:48:56.420Z,15.62
2023-04-10T01:51:24.375Z,15.63
2023-04-10T01:53:52.656Z,15.62
2023-04-10T01:56:25.622Z,15.63
2023-04-10T01:58:53.689Z,15.65
2023-04-10T02:01:29.899Z,15.67
2023-04-10T02:03:59.075Z,15.66
2023-04-10T02:06:32.024Z,15.67
2023-04-10T02:09:03.824Z,15.68
2023-04-10T02:11:35.362Z,15.65
2023-04-10T02:14:05.598Z,15.67
2023-04-10T02:16:34.993Z,15.65
2023-04-10T02:19:02.967Z,15.67
2023-04-10T02:21:31.204Z,15.70
2023-04-10T02:23:59.134Z,15.73
2023-04-10T02:26:27.091Z,15.79
2023-04-10T02:28:55.215Z,15.83
2023-04-10T02:31:23.319Z,15.88
2023-04-10T02:33:52.768Z,15.89
2023-04-10T02:36:21.568Z,15.93
2023-04-10T02:38:49.529Z,15.96
2023-04-10T02:41:17.606Z,15.97
2023-04-10T02:43:45.793Z,15.94
2023-04-10T02:46:13.842Z,15.88
2023-04-10T02:48:41.830Z,15.85
2023-04-10T02:51:13.636Z,15.85
2023-04-10T02:53:41.908Z,15.86
2023-04-10T02:56:11.951Z,15.85
2023-04-10T02:58:45.470Z,15.83
2023-04-10T03:01:14.784Z,15.78
2023-04-10T03:03:47.556Z,15.78
2023-04-10T03:06:27.296Z,15.75
2023-04-10T03:08:57.155Z,15.76
2023-04-10T03:11:25.243Z,15.78
2023-04-10T03:13:53.852Z,15.84
2023-04-10T03:16:22.268Z,15.92
2023-04-10T03:18:50.599Z,15.98
2023-04-10T03:21:21.527Z,16.01
2023-04-10T03:23:52.527Z,15.99
2023-04-10T03:26:20.998Z,15.96
2023-04-10T03:28:48.910Z,15.94
2023-04-10T03:31:16.964Z,15.89
2023-04-10T03:33:46.643Z,15.85
2023-04-10T03:36:16.180Z,15.84
2023-04-10T03:38:44.152Z,15.81
2023-04-10T03:41:13.432Z,15.80
2023-04-10T03:43:42.044Z,15.84
2023-04-10T03:46:10.114Z,15.84
2023-04-10T03:48:42.907Z,15.85
2023-04-10T03:51:11.595Z,15.83
2023-04-10T03:53:39.550Z,15.84
2023-04-10T03:56:13.596Z,15.91
2023-04-10T03:58:42.256Z,15.98
2023-04-10T04:01:10.679Z,16.07
2023-04-10T04:03:56.023Z,16.12
2023-04-10T04:06:48.714Z,16.12
2023-04-10T04:09:16.645Z,16.17
2023-04-10T04:11:58.514Z,16.24
2023-04-10T04:14:51.803Z,16.29
2023-04-10T04:17:38.869Z,16.33
2023-04-10T04:20:12.699Z,16.34
2023-04-10T04:23:06.536Z,16.30
2023-04-10T04:25:40.497Z,16.20
2023-04-10T04:28:30.231Z,16.08
2023-04-10T04:31:16.262Z,16.02
2023-04-10T04:34:03.141Z,15.99
2023-04-10T04:36:42.918Z,15.99
2023-04-10T04:39:49.230Z,15.97
2023-04-10T04:42:38.308Z,15.97
2023-04-10T04:45:18.925Z,16.00
2023-04-10T04:48:11.098Z,16.03
2023-04-10T04:51:07.680Z,16.03
2023-04-10T04:53:45.828Z,16.02
2023-04-10T04:56:29.033Z,15.98
2023-04-10T04:59:12.618Z,15.93
2023-04-10T05:02:00.459Z,15.84
2023-04-10T05:05:04.140Z,15.80
2023-04-10T05:07:52.846Z,15.84
2023-04-10T05:10:47.009Z,15.89
2023-04-10T05:13:24.342Z,15.91
2023-04-10T05:16:12.539Z,15.96
2023-04-10T05:19:14.846Z,15.95
2023-04-10T05:21:53.163Z,15.95
2023-04-10T05:24:44.077Z,15.99
2023-04-10T05:27:18.346Z,16.01
2023-04-10T05:30:04.576Z,15.98
2023-04-10T05:32:46.052Z,15.98
2023-04-10T05:35:33.940Z,15.95
2023-04-10T05:38:22.180Z,15.96
2023-04-10T05:41:10.535Z,15.98
2023-04-10T05:43:41.736Z,16.02
2023-04-10T05:46:28.447Z,16.06
2023-04-10T05:49:25.879Z,16.04
2023-04-10T05:52:15.497Z,16.06
2023-04-10T05:54:43.418Z,16.06
2023-04-10T05:57:26.711Z,16.05
2023-04-10T06:00:19.194Z,16.05
2023-04-10T06:03:07.198Z,16.09
2023-04-10T06:05:45.941Z,16.08
2023-04-10T06:08:15.540Z,16.08
2023-04-10T06:10:43.473Z,16.06
2023-04-10T06:13:12.725Z,16.08
2023-04-10T06:15:41.573Z,16.10
2023-04-10T06:18:09.764Z,16.11
2023-04-10T06:20:38.755Z,16.12
2023-04-10T06:23:06.959Z,16.11
2023-04-10T06:25:36.287Z,16.12
2023-04-10T06:28:04.324Z,16.06
2023-04-10T06:30:34.023Z,16.12
2023-04-10T06:33:02.706Z,16.10
2023-04-10T06:35:33.058Z,16.12
2023-04-10T06:38:01.018Z,16.06
2023-04-10T06:40:30.983Z,15.93
2023-04-10T06:43:00.553Z,15.87
2023-04-10T06:45:34.779Z,15.77
2023-04-10T06:48:02.836Z,15.74
2023-04-10T06:50:33.290Z,15.70
2023-04-10T06:53:01.449Z,15.69
2023-04-10T06:55:29.475Z,15.64
2023-04-10T06:57:57.588Z,15.59
2023-04-10T07:00:26.923Z,15.65
2023-04-10T07:02:55.205Z,15.66
2023-04-10T07:05:23.732Z,15.70
2023-04-10T07:07:51.785Z,15.71
2023-04-10T07:10:19.700Z,15.72
2023-04-10T07:12:47.637Z,15.71
2023-04-10T07:15:16.122Z,15.70
2023-04-10T07:17:45.667Z,15.67
2023-04-10T07:20:13.964Z,15.68
2023-04-10T07:22:41.934Z,15.66
2023-04-10T07:25:10.555Z,15.67
2023-04-10T07:27:38.515Z,15.68
2023-04-10T07:30:07.791Z,15.72
2023-04-10T07:32:39.743Z,15.76
2023-04-10T07:35:10.542Z,15.69
2023-04-10T07:37:39.883Z,15.78
2023-04-10T07:40:11.485Z,15.84
2023-04-10T07:42:39.624Z,15.89
2023-04-10T07:45:08.904Z,15.91
2023-04-10T07:47:37.019Z,15.90
2023-04-10T07:50:05.787Z,15.93
2023-04-10T07:52:35.403Z,15.83
2023-04-10T07:55:03.845Z,15.90
2023-04-10T07:57:32.379Z,15.90
2023-04-10T08:00:00.841Z,15.86
2023-04-10T08:02:28.907Z,15.96
2023-04-10T08:04:57.203Z,16.04
2023-04-10T08:07:25.286Z,16.05
2023-04-10T08:09:54.625Z,16.15
2023-04-10T08:12:22.828Z,16.27
2023-04-10T08:14:51.691Z,16.42
2023-04-10T08:17:19.714Z,16.49
2023-04-10T08:19:47.726Z,16.57
2023-04-10T08:22:15.715Z,16.62
2023-04-10T08:24:43.787Z,16.64
2023-04-10T08:27:16.286Z,16.66
2023-04-10T08:29:44.426Z,16.74
2023-04-10T08:32:12.515Z,16.72
2023-04-10T08:34:40.591Z,16.69
2023-04-10T08:37:11.368Z,16.74
2023-04-10T08:39:40.073Z,16.77
2023-04-10T08:42:08.308Z,16.76
2023-04-10T08:44:39.146Z,16.69
2023-04-10T08:47:07.293Z,16.68
2023-04-10T08:49:40.343Z,16.65
2023-04-10T08:52:09.697Z,16.61
2023-04-10T08:54:39.695Z,16.61
2023-04-10T08:57:09.845Z,16.49
2023-04-10T08:59:40.386Z,16.58
2023-04-10T09:02:08.352Z,16.54
2023-04-10T09:04:36.606Z,16.70
2023-04-10T09:07:04.635Z,16.71
2023-04-10T09:09:34.303Z,16.79
2023-04-10T09:12:03.940Z,16.82
2023-04-10T09:14:32.451Z,16.82
2023-04-10T09:17:18.221Z,16.98
2023-04-10T09:19:46.606Z,17.10
2023-04-10T09:22:14.648Z,17.15
2023-04-10T09:24:43.316Z,17.28
2023-04-10T09:27:11.290Z,17.34
2023-04-10T09:29:48.321Z,17.39
2023-04-10T09:32:36.956Z,17.43
2023-04-10T09:35:08.506Z,17.30
2023-04-10T09:37:36.883Z,17.33
2023-04-10T09:40:05.557Z,17.33
2023-04-10T09:42:34.267Z,17.26
2023-04-10T09:45:02.402Z,17.30
2023-04-10T09:47:32.286Z,17.28
2023-04-10T09:50:01.425Z,17.36
2023-04-10T09:52:29.939Z,17.36
2023-04-10T09:54:58.690Z,17.29
2023-04-10T09:57:29.764Z,17.41
2023-04-10T10:00:00.496Z,17.33
2023-04-10T10:02:31.546Z,17.45
2023-04-10T10:05:01.473Z,17.37
2023-04-10T10:07:29.595Z,17.31
2023-04-10T10:09:57.639Z,17.36
2023-04-10T10:12:27.768Z,17.33
2023-04-10T10:15:04.470Z,17.42
2023-04-10T10:17:37.628Z,17.28
2023-04-10T10:20:06.856Z,17.37
2023-04-10T10:22:34.818Z,17.34
2023-04-10T10:25:02.895Z,17.54
2023-04-10T10:27:32.714Z,17.67
2023-04-10T10:30:02.990Z,17.65
2023-04-10T10:32:35.706Z,17.57
2023-04-10T10:35:04.005Z,17.81
2023-04-10T10:37:31.939Z,17.76
2023-04-10T10:40:02.372Z,17.78
2023-04-10T10:42:34.447Z,17.86
2023-04-10T10:45:08.704Z,17.55
2023-04-10T10:47:41.969Z,17.77
2023-04-10T10:50:10.496Z,18.05
2023-04-10T10:52:43.060Z,18.04
2023-04-10T10:55:32.543Z,18.10
2023-04-10T10:58:02.270Z,17.53
2023-04-10T11:01:10.334Z,17.60
2023-04-10T11:03:40.885Z,17.53
2023-04-10T11:06:09.153Z,17.58
2023-04-10T11:08:44.977Z,17.09
2023-04-10T11:11:17.221Z,17.07
2023-04-10T11:14:24.227Z,16.77
2023-04-10T11:16:52.409Z,17.51
2023-04-10T11:19:23.708Z,17.76
2023-04-10T11:22:05.790Z,18.28
2023-04-10T11:24:53.345Z,18.28
2023-04-10T11:27:40.812Z,18.25
2023-04-10T11:30:34.571Z,17.87
2023-04-10T11:33:03.855Z,17.73
2023-04-10T11:35:34.039Z,17.92
2023-04-10T11:38:15.512Z,18.16
2023-04-10T11:41:04.223Z,18.25
2023-04-10T11:43:32.563Z,18.61
2023-04-10T11:46:07.778Z,18.19
2023-04-10T11:48:37.061Z,18.50
2023-04-10T11:51:10.928Z,18.59
2023-04-10T11:53:38.979Z,18.30
2023-04-10T11:56:08.715Z,18.48
2023-04-10T11:58:37.046Z,18.38
2023-04-10T12:01:08.006Z,18.24
2023-04-10T12:03:37.454Z,18.90
2023-04-10T12:06:06.726Z,18.34
2023-04-10T12:08:36.825Z,18.60
2023-04-10T12:11:05.040Z,18.41
2023-04-10T12:13:33.276Z,18.49
2023-04-10T12:16:02.270Z,18.26
2023-04-10T12:18:30.684Z,17.97
2023-04-10T12:20:59.460Z,18.12
2023-04-10T12:23:28.275Z,18.28
2023-04-10T12:26:08.515Z,18.21
2023-04-10T12:28:39.151Z,18.36
2023-04-10T12:31:08.010Z,18.69
2023-04-10T12:33:36.051Z,19.02
2023-04-10T12:36:08.029Z,18.60
2023-04-10T12:38:39.654Z,18.63
2023-04-10T12:41:09.658Z,18.62
2023-04-10T12:43:38.396Z,18.81
2023-04-10T12:46:10.670Z,18.81
2023-04-10T12:48:38.821Z,19.06
2023-04-10T12:51:08.163Z,19.16
2023-04-10T12:53:44.369Z,19.49
2023-04-10T12:56:14.782Z,19.49
2023-04-10T12:58:43.747Z,19.37
2023-04-10T13:01:11.717Z,19.24
2023-04-10T13:03:39.917Z,18.98
2023-04-10T13:06:08.802Z,18.99
2023-04-10T13:08:37.082Z,19.18
2023-04-10T13:11:05.794Z,19.20
2023-04-10T13:13:35.577Z,19.24
2023-04-10T13:16:03.942Z,19.74
2023-04-10T13:18:32.067Z,19.72
2023-04-10T13:21:00.292Z,19.25
2023-04-10T13:23:28.313Z,19.19
2023-04-10T13:25:56.847Z,18.95
2023-04-10T13:28:24.830Z,18.73
2023-04-10T13:30:54.194Z,19.04
2023-04-10T13:33:22.235Z,19.09
2023-04-10T13:35:50.337Z,18.96
2023-04-10T13:38:20.027Z,18.77
2023-04-10T13:40:49.585Z,18.59
2023-04-10T13:43:17.706Z,18.49
2023-04-10T13:45:46.028Z,18.61
2023-04-10T13:48:17.641Z,18.30
2023-04-10T13:50:47.090Z,18.59
2023-04-10T13:53:15.138Z,18.59
2023-04-10T13:55:43.819Z,18.39
2023-04-10T13:58:12.116Z,18.42
2023-04-10T14:00:40.284Z,18.42
2023-04-10T14:03:10.304Z,18.12
2023-04-10T14:05:39.883Z,18.18
2023-04-10T14:08:25.388Z,17.89
2023-04-10T14:10:53.527Z,18.13
2023-04-10T14:13:21.448Z,18.43
2023-04-10T14:15:52.016Z,18.58
2023-04-10T14:18:20.104Z,18.64
2023-04-10T14:20:49.394Z,18.48
2023-04-10T14:23:18.407Z,18.36
2023-04-10T14:25:46.592Z,18.66
2023-04-10T14:28:18.285Z,18.71
2023-04-10T14:30:46.498Z,19.04
2023-04-10T14:33:14.530Z,18.96
2023-04-10T14:35:42.749Z,18.56
2023-04-10T14:38:12.288Z,18.54
2023-04-10T14:40:40.718Z,18.78
2023-04-10T14:43:08.815Z,18.71
2023-04-10T14:45:37.123Z,18.78
2023-04-10T14:48:05.732Z,18.77
2023-04-10T14:50:33.921Z,19.25
2023-04-10T14:53:01.869Z,19.64
2023-04-10T14:55:31.454Z,19.74
2023-04-10T14:57:59.370Z,20.01
2023-04-10T15:00:29.598Z,20.06
2023-04-10T15:02:58.377Z,19.72
2023-04-10T15:05:26.746Z,19.36
2023-04-10T15:07:54.730Z,19.47
2023-04-10T15:10:22.956Z,19.13
2023-04-10T15:12:52.447Z,19.36
2023-04-10T15:15:20.580Z,19.46
2023-04-10T15:17:50.231Z,19.36
2023-04-10T15:20:18.411Z,18.92
2023-04-10T15:22:48.152Z,18.84
2023-04-10T15:25:33.829Z,18.94
2023-04-10T15:28:03.491Z,18.66
2023-04-10T15:30:31.976Z,18.87
2023-04-10T15:33:00.358Z,19.18
2023-04-10T15:35:30.398Z,19.04
2023-04-10T15:37:58.653Z,19.21
2023-04-10T15:40:26.683Z,19.03
2023-04-10T15:42:54.662Z,19.24
2023-04-10T15:45:24.095Z,19.29
2023-04-10T15:47:52.139Z,19.41
2023-04-10T15:50:20.283Z,19.10
2023-04-10T15:52:48.556Z,19.41
2023-04-10T15:55:17.096Z,19.17
2023-04-10T15:57:45.089Z,18.79
2023-04-10T16:00:14.398Z,18.13
2023-04-10T16:02:44.032Z,17.91
2023-04-10T16:05:12.271Z,18.08
2023-04-10T16:07:42.372Z,17.52
2023-04-10T16:10:12.369Z,18.33
2023-04-10T16:12:42.440Z,18.67
2023-04-10T16:15:11.019Z,18.98
2023-04-10T16:17:39.620Z,19.29
2023-04-10T16:20:09.663Z,19.55
2023-04-10T16:22:37.658Z,19.70
2023-04-10T16:25:06.407Z,19.34
2023-04-10T16:27:34.481Z,19.27
2023-04-10T16:30:02.527Z,19.28
2023-04-10T16:32:31.718Z,19.46
2023-04-10T16:35:00.196Z,19.31
2023-04-10T16:37:29.604Z,19.61
2023-04-10T16:39:57.677Z,19.42
2023-04-10T16:42:25.584Z,19.04
2023-04-10T16:44:53.655Z,18.62
2023-04-10T16:47:21.524Z,18.46
2023-04-10T16:49:49.544Z,18.12
2023-04-10T16:52:17.666Z,17.59
2023-04-10T16:54:46.971Z,17.40
2023-04-10T16:57:14.937Z,17.11
2023-04-10T16:59:42.844Z,16.77
2023-04-10T17:02:10.925Z,16.59
2023-04-10T17:04:38.934Z,16.88
2023-04-10T17:07:06.816Z,16.98
2023-04-10T17:09:34.865Z,16.88
2023-04-10T17:12:04.200Z,17.20
2023-04-10T17:14:32.235Z,17.42
2023-04-10T17:17:00.222Z,17.97
2023-04-10T17:19:28.203Z,18.39
2023-04-10T17:21:56.120Z,18.20
2023-04-10T17:24:24.148Z,18.41
2023-04-10T17:26:52.135Z,18.23
2023-04-10T17:29:21.416Z,17.99
2023-04-10T17:31:49.360Z,18.11
2023-04-10T17:34:17.290Z,17.41
2023-04-10T17:36:45.261Z,16.83
2023-04-10T17:39:13.226Z,16.69
2023-04-10T17:41:41.191Z,16.56
2023-04-10T17:44:10.547Z,16.38
2023-04-10T17:46:39.807Z,16.32
2023-04-10T17:49:07.855Z,16.30
2023-04-10T17:51:35.925Z,16.40
2023-04-10T17:54:04.153Z,16.76
2023-04-10T17:56:32.034Z,17.02
2023-04-10T17:59:00.618Z,16.77
2023-04-10T18:01:30.174Z,16.55
2023-04-10T18:04:00.183Z,16.56
2023-04-10T18:06:28.226Z,16.30
2023-04-10T18:08:57.179Z,16.50
2023-04-10T18:11:25.410Z,16.28
2023-04-10T18:13:53.360Z,16.29
2023-04-10T18:16:21.446Z,16.17
2023-04-10T18:18:49.426Z,16.04
2023-04-10T18:21:18.783Z,15.89
2023-04-10T18:23:46.708Z,15.78
2023-04-10T18:26:14.746Z,15.63
2023-04-10T18:28:43.554Z,15.60
2023-04-10T18:31:14.765Z,15.60
2023-04-10T18:33:43.443Z,15.54
2023-04-10T18:36:13.928Z,15.62
2023-04-10T18:38:43.918Z,15.54
2023-04-10T18:41:12.001Z,15.45
2023-04-10T18:43:40.082Z,15.39
2023-04-10T18:46:08.339Z,15.41
2023-04-10T18:48:36.629Z,15.34
2023-04-10T18:51:04.715Z,15.16
2023-04-10T18:53:32.639Z,15.12
2023-04-10T18:56:01.908Z,15.02
2023-04-10T18:58:30.051Z,15.00
2023-04-10T19:00:58.048Z,14.99
2023-04-10T19:03:26.744Z,15.00
2023-04-10T19:05:54.882Z,15.02
2023-04-10T19:08:23.023Z,14.94
2023-04-10T19:10:51.115Z,14.86
2023-04-10T19:13:20.373Z,14.92
2023-04-10T19:15:48.496Z,14.84
2023-04-10T19:18:16.670Z,14.78
2023-04-10T19:20:50.032Z,14.97
2023-04-10T19:23:19.717Z,14.85
2023-04-10T19:25:47.837Z,14.77
2023-04-10T19:28:15.890Z,14.83
2023-04-10T19:30:45.196Z,14.70
2023-04-10T19:33:13.288Z,14.67
2023-04-10T19:35:41.273Z,14.69
2023-04-10T19:38:09.297Z,14.68
2023-04-10T19:40:37.278Z,14.68
2023-04-10T19:43:05.399Z,14.68
2023-04-10T19:45:33.368Z,14.65
2023-04-10T19:48:02.799Z,14.65
2023-04-10T19:50:31.869Z,14.75
2023-04-10T19:52:59.860Z,14.70
2023-04-10T19:55:27.906Z,14.62
2023-04-10T19:57:55.964Z,14.43
2023-04-10T20:00:23.960Z,14.51
2023-04-10T20:02:52.060Z,14.49
2023-04-10T20:05:21.620Z,14.40
2023-04-10T20:07:50.420Z,14.49
2023-04-10T20:10:18.503Z,14.55
2023-04-10T20:12:46.428Z,14.49
2023-04-10T20:15:14.365Z,14.56
2023-04-10T20:17:42.457Z,14.44
2023-04-10T20:20:12.714Z,14.37
2023-04-10T20:22:43.080Z,14.49
2023-04-10T20:25:11.257Z,14.32
2023-04-10T20:27:39.218Z,14.40
2023-04-10T20:30:08.551Z,14.52
2023-04-10T20:32:37.039Z,14.58
2023-04-10T20:35:05.489Z,14.40
2023-04-10T20:37:33.449Z,14.51
2023-04-10T20:40:03.213Z,14.43
2023-04-10T20:42:31.183Z,14.48
2023-04-10T20:44:59.084Z,14.42
2023-04-10T20:47:27.193Z,14.33
2023-04-10T20:49:55.088Z,14.37
2023-04-10T20:52:23.191Z,14.41
2023-04-10T20:54:51.079Z,14.38
2023-04-10T20:57:20.433Z,14.43
2023-04-10T20:59:48.375Z,14.33
2023-04-10T21:02:18.063Z,14.37
2023-04-10T21:04:46.164Z,14.30
2023-04-10T21:07:14.098Z,14.30
2023-04-10T21:09:42.107Z,14.36
2023-04-10T21:12:10.120Z,14.24
2023-04-10T21:14:39.415Z,14.29
2023-04-10T21:17:07.425Z,14.33
2023-04-10T21:19:35.339Z,14.26
2023-04-10T21:22:03.323Z,14.25
2023-04-10T21:24:31.313Z,14.15
2023-04-10T21:26:59.613Z,13.95
2023-04-10T21:29:27.493Z,14.08
2023-04-10T21:31:57.250Z,14.09
2023-04-10T21:34:25.508Z,14.11
2023-04-10T21:36:53.414Z,14.23
2023-04-10T21:39:21.339Z,14.29
2023-04-10T21:41:49.245Z,14.15
2023-04-10T21:44:17.104Z,14.19
2023-04-10T21:46:45.205Z,14.26
2023-04-10T21:49:14.472Z,14.19
2023-04-10T21:51:42.447Z,14.09
2023-04-10T21:54:10.376Z,14.04
2023-04-10T21:56:40.848Z,14.15
2023-04-10T21:59:08.924Z,14.14
2023-04-10T22:01:37.048Z,14.23
2023-04-10T22:04:05.215Z,14.18
2023-04-10T22:06:34.637Z,14.11
2023-04-10T22:09:02.562Z,14.12
2023-04-10T22:11:30.480Z,14.19
2023-04-10T22:14:02.877Z,14.25
2023-04-10T22:16:37.232Z,14.18
2023-04-10T22:19:05.101Z,14.11
2023-04-10T22:21:34.439Z,13.97
2023-04-10T22:24:02.868Z,14.21
2023-04-10T22:26:32.850Z,14.20
2023-04-10T22:29:00.783Z,14.14
2023-04-10T22:31:28.791Z,14.25
2023-04-10T22:33:56.733Z,14.30
2023-04-10T22:36:24.639Z,14.17
2023-04-10T22:38:54.205Z,14.27
2023-04-10T22:41:22.250Z,14.33
2023-04-10T22:43:50.192Z,14.40
2023-04-10T22:46:18.448Z,14.36
2023-04-10T22:48:47.056Z,14.39
2023-04-10T22:51:15.000Z,14.41
2023-04-10T22:53:42.991Z,14.24
2023-04-10T22:56:12.798Z,14.43
2023-04-10T22:58:40.922Z,14.37
2023-04-10T23:01:11.716Z,14.24
2023-04-10T23:03:40.106Z,14.34
2023-04-10T23:06:08.848Z,14.19
2023-04-10T23:08:37.578Z,14.36
2023-04-10T23:11:05.719Z,14.36
2023-04-10T23:13:35.040Z,14.44
2023-04-10T23:16:03.283Z,14.42
2023-04-10T23:18:31.274Z,14.42
2023-04-10T23:20:59.354Z,14.34
2023-04-10T23:23:27.347Z,14.25
2023-04-10T23:25:58.892Z,14.26
2023-04-10T23:28:26.909Z,14.24
2023-04-10T23:30:56.192Z,14.24
2023-04-10T23:33:24.276Z,14.20
2023-04-10T23:35:52.310Z,14.31
2023-04-10T23:38:21.204Z,14.21
2023-04-10T23:40:49.092Z,14.31
2023-04-10T23:43:17.001Z,14.21
2023-04-10T23:45:44.975Z,14.29
2023-04-10T23:48:14.236Z,14.22
2023-04-10T23:50:42.179Z,14.21
2023-04-10T23:53:10.232Z,14.29
2023-04-10T23:55:39.807Z,14.40
2023-04-10T23:58:07.960Z,14.43
